Time;durP1;ratioP1;P1;durP2;ratioP2;P2;SDS_P1;SDS_P2;PMS_P1;PMS_P2;Temp;Humidity;BMP_temperature;BMP_pressure;BME280_temperature;BME280_humidity;BME280_pressure;Samples;Min_cycle;Max_cycle;Signal;HPM_P1;HPM_P2
2024/01/22 00:02:10;;;;;;;15.53;10.67;;;-1.00;99.90;;;;;;5092566;28;20192;-71
2024/01/22 00:04:36;;;;;;;16.43;10.70;;;-1.00;99.90;;;;;;5092812;28;20617;-71
2024/01/22 00:07:04;;;;;;;17.00;10.83;;;-1.10;99.90;;;;;;5096185;28;20478;-71
2024/01/22 00:09:31;;;;;;;16.47;11.33;;;-1.10;99.90;;;;;;5096257;28;20253;-71
2024/01/22 00:11:58;;;;;;;15.20;9.80;;;-1.20;99.90;;;;;;5096077;28;20196;-72
2024/01/22 00:14:25;;;;;;;14.93;10.67;;;-1.20;99.90;;;;;;5096148;28;20724;-72
2024/01/22 00:16:51;;;;;;;14.93;10.33;;;-1.10;99.90;;;;;;5096335;28;20250;-72
2024/01/22 00:19:18;;;;;;;15.10;10.47;;;-1.10;99.90;;;;;;5096096;28;20228;-71
2024/01/22 00:21:45;;;;;;;14.33;10.30;;;-1.10;99.90;;;;;;5095925;28;20665;-72
2024/01/22 00:24:13;;;;;;;15.63;10.20;;;-1.10;99.90;;;;;;5095940;28;20273;-71
2024/01/22 00:26:39;;;;;;;14.73;10.13;;;-1.10;99.90;;;;;;5095889;28;20199;-72
2024/01/22 00:29:07;;;;;;;14.63;10.03;;;-1.00;99.90;;;;;;5095735;28;20224;-71
2024/01/22 00:31:34;;;;;;;14.97;10.40;;;-1.10;99.90;;;;;;5095860;28;20227;-71
2024/01/22 00:34:01;;;;;;;14.20;9.60;;;-1.20;99.90;;;;;;5095858;28;20204;-71
2024/01/22 00:36:27;;;;;;;14.47;9.70;;;-1.30;99.90;;;;;;5095826;28;20261;-71
2024/01/22 00:38:54;;;;;;;14.03;9.63;;;-1.40;99.90;;;;;;5095502;28;20196;-71
2024/01/22 00:41:22;;;;;;;13.77;9.37;;;-1.30;99.90;;;;;;5095458;28;20632;-71
2024/01/22 00:43:48;;;;;;;15.53;9.33;;;-1.40;99.90;;;;;;5095523;28;20250;-71
2024/01/22 00:46:15;;;;;;;13.60;9.67;;;-1.40;99.90;;;;;;5095657;28;20196;-71
2024/01/22 00:48:42;;;;;;;13.23;9.27;;;-1.40;99.90;;;;;;5095603;28;20203;-71
2024/01/22 00:51:10;;;;;;;13.30;9.00;;;-1.30;99.90;;;;;;5095510;28;20200;-71
2024/01/22 00:53:36;;;;;;;14.63;9.43;;;-1.30;99.90;;;;;;5095338;28;20206;-71
2024/01/22 00:56:03;;;;;;;13.57;8.80;;;-1.20;99.90;;;;;;5095318;28;20200;-71
2024/01/22 00:58:31;;;;;;;15.07;9.07;;;-1.20;99.90;;;;;;5095401;28;20230;-71
2024/01/22 01:00:58;;;;;;;13.83;9.50;;;-1.10;99.90;;;;;;5095289;28;20228;-72
2024/01/22 01:03:25;;;;;;;14.30;8.90;;;-1.10;99.90;;;;;;5095193;28;20290;-71
2024/01/22 01:05:52;;;;;;;15.50;8.70;;;-1.10;99.90;;;;;;5095179;28;20200;-71
2024/01/22 01:08:18;;;;;;;12.83;8.20;;;-1.10;99.90;;;;;;5095091;28;20257;-72
2024/01/22 01:10:45;;;;;;;14.57;9.03;;;-1.10;99.90;;;;;;5095230;28;20601;-71
2024/01/22 01:13:12;;;;;;;13.63;8.83;;;-1.20;99.90;;;;;;5095155;28;20679;-72
2024/01/22 01:15:40;;;;;;;13.53;9.13;;;-1.20;99.90;;;;;;5094953;28;20196;-72
2024/01/22 01:18:06;;;;;;;13.67;9.20;;;-1.20;99.90;;;;;;5094992;28;20254;-71
2024/01/22 01:20:33;;;;;;;13.33;8.57;;;-1.30;99.90;;;;;;5094957;28;20216;-71
2024/01/22 01:23:00;;;;;;;14.07;8.93;;;-1.30;99.90;;;;;;5094973;28;20204;-72
2024/01/22 01:25:27;;;;;;;11.60;8.30;;;-1.30;99.90;;;;;;5094853;28;20199;-71
2024/01/22 01:27:53;;;;;;;11.80;8.27;;;-1.30;99.90;;;;;;5094642;28;20253;-71
2024/01/22 01:30:20;;;;;;;13.60;8.97;;;-1.30;99.90;;;;;;5094763;28;20234;-71
2024/01/22 01:32:48;;;;;;;13.00;8.83;;;-1.30;99.90;;;;;;5094608;28;20206;-71
2024/01/22 01:35:15;;;;;;;13.83;8.20;;;-1.30;99.90;;;;;;5094538;28;20262;-71
2024/01/22 01:37:42;;;;;;;14.23;8.90;;;-1.40;99.90;;;;;;5094510;28;20200;-71
2024/01/22 01:40:09;;;;;;;12.60;8.00;;;-1.40;99.90;;;;;;5094493;28;20272;-72
2024/01/22 01:42:36;;;;;;;14.97;8.67;;;-1.40;99.90;;;;;;5094525;28;20329;-71
2024/01/22 01:45:03;;;;;;;11.53;7.70;;;-1.40;99.90;;;;;;5094429;28;20196;-72
2024/01/22 01:47:30;;;;;;;14.50;8.33;;;-1.30;99.90;;;;;;5094309;28;20196;-72
2024/01/22 01:49:58;;;;;;;12.57;8.17;;;-1.30;99.90;;;;;;5094225;28;20204;-71
2024/01/22 01:52:25;;;;;;;13.23;8.50;;;-1.20;99.90;;;;;;5094369;28;20253;-71
2024/01/22 01:54:53;;;;;;;12.43;8.43;;;-1.10;99.90;;;;;;5094255;28;20611;-71
2024/01/22 01:57:22;;;;;;;13.17;8.00;;;-1.10;99.90;;;;;;5094352;28;20274;-71
2024/01/22 01:59:49;;;;;;;11.17;8.17;;;-1.20;99.90;;;;;;5094117;28;20277;-71
2024/01/22 02:02:16;;;;;;;15.63;8.50;;;-1.20;99.90;;;;;;5094257;28;20201;-71
2024/01/22 02:04:43;;;;;;;12.37;8.00;;;-1.20;99.90;;;;;;5097048;28;20208;-71
2024/01/22 02:07:11;;;;;;;11.93;8.70;;;-1.30;99.90;;;;;;5098609;28;20196;-72
2024/01/22 02:09:53;;;;;;;13.13;8.43;;;-1.30;99.90;;;;;;5094074;28;20253;-71
2024/01/22 02:12:20;;;;;;;11.97;8.37;;;-1.20;99.90;;;;;;5093974;28;20645;-71
2024/01/22 02:14:47;;;;;;;13.00;8.33;;;-1.00;99.90;;;;;;5093699;28;20196;-71
2024/01/22 02:17:14;;;;;;;14.27;8.20;;;-1.00;99.90;;;;;;5093836;28;20253;-71
2024/01/22 02:19:41;;;;;;;12.53;7.93;;;-0.90;99.90;;;;;;5093891;28;20231;-71
2024/01/22 02:22:08;;;;;;;11.63;7.73;;;-0.80;99.90;;;;;;5093741;28;20192;-71
2024/01/22 02:24:36;;;;;;;12.57;7.93;;;-1.00;99.90;;;;;;5093714;28;20241;-71
2024/01/22 02:27:03;;;;;;;12.07;7.80;;;-1.10;99.90;;;;;;5093171;28;20240;-72
2024/01/22 02:29:29;;;;;;;14.50;8.80;;;-1.10;99.90;;;;;;5093599;28;20246;-71
2024/01/22 02:31:56;;;;;;;11.80;8.50;;;-1.00;99.90;;;;;;5093684;28;20211;-71
2024/01/22 02:34:23;;;;;;;12.03;8.97;;;-1.00;99.90;;;;;;5093546;28;20204;-71
2024/01/22 02:36:49;;;;;;;12.73;8.07;;;-0.90;99.90;;;;;;5093552;28;20200;-71
2024/01/22 02:39:16;;;;;;;14.77;8.80;;;-0.90;99.90;;;;;;5093424;28;20193;-71
2024/01/22 02:41:44;;;;;;;14.03;8.07;;;-0.80;99.90;;;;;;5093248;28;20281;-71
2024/01/22 02:44:11;;;;;;;12.60;8.10;;;-0.90;99.90;;;;;;5093171;28;20192;-71
2024/01/22 02:46:37;;;;;;;11.57;7.90;;;-1.00;99.90;;;;;;5093400;28;20196;-71
2024/01/22 02:49:04;;;;;;;12.03;8.30;;;-1.10;99.90;;;;;;5093445;28;20203;-71
2024/01/22 02:51:31;;;;;;;12.67;8.40;;;-1.00;99.90;;;;;;5093274;28;20273;-71
2024/01/22 02:53:57;;;;;;;11.83;8.10;;;-1.00;99.90;;;;;;5093239;28;20200;-71
2024/01/22 02:56:25;;;;;;;10.87;7.80;;;-1.10;99.90;;;;;;5093059;28;20200;-72
2024/01/22 02:58:52;;;;;;;10.73;7.63;;;-1.10;99.90;;;;;;5093028;28;20234;-72
2024/01/22 03:01:20;;;;;;;11.60;8.27;;;-1.10;99.90;;;;;;5093149;28;20232;-72
2024/01/22 03:03:46;;;;;;;11.03;7.57;;;-1.10;99.90;;;;;;5093185;28;20287;-72
2024/01/22 03:06:13;;;;;;;14.00;8.37;;;-1.10;99.90;;;;;;5092863;28;20547;-71
2024/01/22 03:08:40;;;;;;;11.80;7.63;;;-1.20;99.90;;;;;;5092918;28;20204;-71
2024/01/22 03:11:08;;;;;;;11.87;8.20;;;-1.30;99.90;;;;;;5092791;28;20533;-72
2024/01/22 03:13:34;;;;;;;11.50;7.50;;;-1.30;99.90;;;;;;5093119;28;20229;-71
2024/01/22 03:16:02;;;;;;;12.53;8.23;;;-1.20;99.90;;;;;;5093012;28;20287;-71
2024/01/22 03:18:29;;;;;;;11.90;7.80;;;-1.20;99.90;;;;;;5092902;28;20200;-71
2024/01/22 03:20:56;;;;;;;14.57;8.43;;;-1.20;99.90;;;;;;5092714;28;20621;-71
2024/01/22 03:23:22;;;;;;;12.63;8.20;;;-1.10;99.90;;;;;;5092820;28;20192;-71
2024/01/22 03:25:49;;;;;;;13.37;7.87;;;-1.10;99.90;;;;;;5092659;28;20200;-71
2024/01/22 03:28:15;;;;;;;12.43;7.37;;;-0.90;99.90;;;;;;5092591;28;20277;-72
2024/01/22 03:30:42;;;;;;;12.20;7.10;;;-0.90;99.90;;;;;;5092841;28;20204;-71
2024/01/22 03:33:10;;;;;;;10.90;7.07;;;-1.00;99.90;;;;;;5092809;28;20606;-71
2024/01/22 03:35:37;;;;;;;10.73;7.37;;;-1.20;99.90;;;;;;5092751;28;20249;-71
2024/01/22 03:38:04;;;;;;;12.00;7.77;;;-1.20;99.90;;;;;;5092556;28;20205;-71
2024/01/22 03:40:30;;;;;;;12.00;7.53;;;-1.10;99.90;;;;;;5094527;28;20224;-70
2024/01/22 03:42:57;;;;;;;11.27;7.50;;;-1.10;99.90;;;;;;5096868;28;20249;-71
2024/01/22 03:45:23;;;;;;;15.80;8.30;;;-1.10;99.90;;;;;;5096807;28;20192;-71
2024/01/22 03:47:50;;;;;;;9.63;7.10;;;-1.10;99.90;;;;;;5096595;28;20590;-71
2024/01/22 03:50:18;;;;;;;11.07;7.10;;;-1.00;99.90;;;;;;5096386;28;20648;-71
2024/01/22 03:52:45;;;;;;;10.47;6.73;;;-1.00;99.90;;;;;;5096586;28;20602;-71
2024/01/22 03:55:11;;;;;;;9.20;6.83;;;-1.10;99.90;;;;;;5096471;28;20561;-71
2024/01/22 03:57:38;;;;;;;9.67;6.60;;;-1.10;99.90;;;;;;5096455;28;20716;-71
2024/01/22 04:00:06;;;;;;;11.43;7.10;;;-1.10;99.90;;;;;;5096324;28;20712;-71
2024/01/22 04:02:34;;;;;;;10.47;7.23;;;-1.10;99.90;;;;;;5096524;28;20296;-71
2024/01/22 04:05:01;;;;;;;9.87;7.27;;;-0.80;99.90;;;;;;5096396;28;20195;-72
2024/01/22 04:07:29;;;;;;;10.53;6.33;;;-0.70;99.90;;;;;;5096211;28;20192;-71
2024/01/22 04:09:55;;;;;;;9.57;6.83;;;-0.70;99.90;;;;;;5096585;28;20249;-71
2024/01/22 04:12:22;;;;;;;10.53;7.10;;;-0.70;99.90;;;;;;5096359;28;20204;-71
2024/01/22 04:14:48;;;;;;;12.53;7.47;;;-0.60;99.90;;;;;;5096211;28;20200;-72
2024/01/22 04:17:15;;;;;;;9.83;6.77;;;-0.50;99.90;;;;;;5096124;28;20710;-72
2024/01/22 04:19:42;;;;;;;10.43;6.27;;;-0.40;99.90;;;;;;5096132;28;20197;-72
2024/01/22 04:22:09;;;;;;;10.33;6.00;;;-0.30;99.90;;;;;;5095853;28;20718;-72
2024/01/22 04:24:37;;;;;;;7.87;6.47;;;-0.20;99.90;;;;;;5096178;28;20204;-72
2024/01/22 04:27:04;;;;;;;10.23;6.87;;;-0.10;99.90;;;;;;5095868;28;20269;-72
2024/01/22 04:29:33;;;;;;;11.77;6.90;;;0.00;99.90;;;;;;5096044;28;20249;-72
2024/01/22 04:31:59;;;;;;;9.73;6.33;;;0.20;99.90;;;;;;5095928;28;20192;-72
2024/01/22 04:34:26;;;;;;;9.27;6.50;;;0.30;99.90;;;;;;5095734;28;20204;-72
2024/01/22 04:36:53;;;;;;;8.33;6.47;;;0.40;99.90;;;;;;5096034;28;20193;-72
2024/01/22 04:39:20;;;;;;;8.63;6.03;;;0.40;99.90;;;;;;5095776;28;20196;-72
2024/01/22 04:41:48;;;;;;;8.37;6.13;;;0.40;99.90;;;;;;5095870;28;20234;-71
2024/01/22 04:44:15;;;;;;;7.80;6.13;;;0.50;99.90;;;;;;5095615;28;20204;-71
2024/01/22 04:46:41;;;;;;;9.37;6.33;;;0.50;99.90;;;;;;5095456;28;20243;-71
2024/01/22 04:49:09;;;;;;;8.90;6.20;;;0.50;99.90;;;;;;5095364;28;20656;-71
2024/01/22 04:51:35;;;;;;;7.67;6.00;;;0.50;99.90;;;;;;5095153;28;20197;-71
2024/01/22 04:54:02;;;;;;;9.73;6.37;;;0.60;99.90;;;;;;5095361;28;20602;-71
2024/01/22 04:56:29;;;;;;;7.50;5.80;;;0.60;99.90;;;;;;5095236;28;20602;-71
2024/01/22 04:58:57;;;;;;;8.17;5.80;;;0.60;99.90;;;;;;5095644;28;20648;-71
2024/01/22 05:01:23;;;;;;;9.73;6.13;;;0.60;99.90;;;;;;5095162;28;20258;-71
2024/01/22 05:03:50;;;;;;;9.57;6.07;;;0.60;99.90;;;;;;5095093;28;20200;-72
2024/01/22 05:06:16;;;;;;;7.90;6.50;;;0.50;99.90;;;;;;5095409;28;20599;-71
2024/01/22 05:08:43;;;;;;;9.57;5.43;;;0.60;99.90;;;;;;5095190;28;20204;-71
2024/01/22 05:11:10;;;;;;;9.90;6.27;;;0.60;99.90;;;;;;5095118;28;20208;-71
2024/01/22 05:13:36;;;;;;;8.07;6.37;;;0.70;99.90;;;;;;5095194;28;20196;-71
2024/01/22 05:16:05;;;;;;;10.30;6.03;;;0.70;99.90;;;;;;5094917;28;20200;-71
2024/01/22 05:18:32;;;;;;;7.83;5.33;;;0.80;99.90;;;;;;5094766;28;20250;-71
2024/01/22 05:20:58;;;;;;;10.03;6.63;;;0.80;99.90;;;;;;5094896;28;20223;-72
2024/01/22 05:23:25;;;;;;;7.57;6.20;;;0.90;99.90;;;;;;5094870;28;20211;-71
2024/01/22 05:25:51;;;;;;;9.40;6.10;;;0.90;99.90;;;;;;5094675;28;20204;-71
2024/01/22 05:28:18;;;;;;;8.13;5.70;;;0.80;99.90;;;;;;5094763;28;20273;-72
2024/01/22 05:30:45;;;;;;;7.40;5.60;;;0.90;99.90;;;;;;5094638;28;20196;-71
2024/01/22 05:33:13;;;;;;;8.93;6.43;;;0.90;99.90;;;;;;5094939;28;20196;-71
2024/01/22 05:35:40;;;;;;;8.27;5.97;;;0.90;99.90;;;;;;5094782;28;20608;-71
2024/01/22 05:38:06;;;;;;;9.20;6.20;;;0.90;99.90;;;;;;5094546;28;20681;-71
2024/01/22 05:40:33;;;;;;;10.43;6.10;;;0.90;99.90;;;;;;5094448;28;20196;-71
2024/01/22 05:43:00;;;;;;;8.60;6.07;;;1.00;99.90;;;;;;5094193;28;20224;-72
2024/01/22 05:45:27;;;;;;;11.63;7.27;;;0.90;99.90;;;;;;5094253;28;20193;-71
2024/01/22 05:47:54;;;;;;;7.33;5.80;;;0.90;99.90;;;;;;5094633;28;20204;-71
2024/01/22 05:50:22;;;;;;;9.23;6.10;;;0.90;99.90;;;;;;5094529;28;20204;-71
2024/01/22 05:52:49;;;;;;;8.93;6.10;;;1.00;99.90;;;;;;5094409;28;20253;-72
2024/01/22 05:55:15;;;;;;;8.33;5.63;;;1.00;99.90;;;;;;5094515;28;20304;-71
2024/01/22 05:57:42;;;;;;;9.63;5.77;;;1.00;99.90;;;;;;5094299;28;20249;-71
2024/01/22 06:00:12;;;;;;;7.97;5.97;;;1.00;99.90;;;;;;5094182;28;20192;-71
2024/01/22 06:02:39;;;;;;;7.97;5.93;;;1.00;99.90;;;;;;5093316;28;20320;-71
2024/01/22 06:05:07;;;;;;;8.40;6.00;;;1.10;99.90;;;;;;5094255;28;20261;-72
2024/01/22 06:07:35;;;;;;;10.50;5.70;;;1.10;99.90;;;;;;5094109;28;20204;-72
2024/01/22 06:10:02;;;;;;;8.27;5.63;;;1.20;99.90;;;;;;5093930;28;20200;-72
2024/01/22 06:12:29;;;;;;;8.27;5.63;;;1.10;99.90;;;;;;5093869;28;20295;-73
2024/01/22 06:14:57;;;;;;;8.40;5.63;;;1.20;99.90;;;;;;5094040;28;20192;-72
2024/01/22 06:17:24;;;;;;;7.63;4.93;;;1.20;99.90;;;;;;5093924;28;20674;-72
2024/01/22 06:19:51;;;;;;;10.60;5.53;;;1.20;99.90;;;;;;5093604;28;20197;-72
2024/01/22 06:22:18;;;;;;;8.27;5.83;;;1.30;99.90;;;;;;5093650;28;20220;-73
2024/01/22 06:24:46;;;;;;;8.10;5.33;;;1.30;99.90;;;;;;5093784;28;20235;-72
2024/01/22 06:27:13;;;;;;;8.10;5.93;;;1.30;99.90;;;;;;5093305;28;20232;-70
2024/01/22 06:29:40;;;;;;;8.70;5.40;;;1.30;99.90;;;;;;5093766;28;20196;-72
2024/01/22 06:32:08;;;;;;;9.63;6.53;;;1.30;99.90;;;;;;5093578;28;20237;-72
2024/01/22 06:34:36;;;;;;;6.03;5.17;;;1.30;99.90;;;;;;5093490;28;20216;-72
2024/01/22 06:37:04;;;;;;;8.07;6.17;;;1.30;99.90;;;;;;5093875;28;20196;-72
2024/01/22 06:39:30;;;;;;;6.77;5.33;;;1.40;99.90;;;;;;5099988;28;20196;-72
2024/01/22 06:41:58;;;;;;;6.97;5.20;;;1.40;99.90;;;;;;5093465;28;20274;-72
2024/01/22 06:44:25;;;;;;;8.90;5.50;;;1.40;99.90;;;;;;5093030;28;20200;-72
2024/01/22 06:46:52;;;;;;;7.43;5.00;;;1.40;99.90;;;;;;5093154;28;20283;-72
2024/01/22 06:49:18;;;;;;;7.43;5.77;;;1.50;99.90;;;;;;5093153;28;20221;-72
2024/01/22 06:51:47;;;;;;;7.43;5.27;;;1.50;99.90;;;;;;5093069;28;20196;-72
2024/01/22 06:54:13;;;;;;;8.20;5.70;;;1.50;99.90;;;;;;5093036;28;20196;-72
2024/01/22 06:56:40;;;;;;;7.63;5.10;;;1.60;99.90;;;;;;5093189;28;20203;-72
2024/01/22 06:59:08;;;;;;;7.03;5.20;;;1.60;99.90;;;;;;5093152;28;20250;-72
2024/01/22 07:01:35;;;;;;;6.83;5.30;;;1.50;99.90;;;;;;5093073;28;20224;-72
2024/01/22 07:04:01;;;;;;;6.33;5.17;;;1.60;99.90;;;;;;5093032;28;20196;-72
2024/01/22 07:06:28;;;;;;;7.43;5.10;;;1.60;99.90;;;;;;5092886;28;20537;-72
2024/01/22 07:08:55;;;;;;;8.37;5.43;;;1.70;99.90;;;;;;5092945;28;20261;-72
2024/01/22 07:11:21;;;;;;;7.60;4.77;;;1.80;99.90;;;;;;5093084;28;20200;-72
2024/01/22 07:13:48;;;;;;;8.37;5.37;;;1.80;99.90;;;;;;5092690;28;20200;-72
2024/01/22 07:16:16;;;;;;;6.23;4.50;;;1.70;99.90;;;;;;5092914;28;20226;-73
2024/01/22 07:18:42;;;;;;;6.63;4.97;;;1.70;99.90;;;;;;5092773;28;20670;-72
2024/01/22 07:21:09;;;;;;;8.90;4.97;;;1.80;99.90;;;;;;5092639;28;20196;-73
2024/01/22 07:23:36;;;;;;;6.73;5.00;;;2.00;99.90;;;;;;5092965;28;20232;-72
2024/01/22 07:26:02;;;;;;;9.63;5.07;;;2.00;99.90;;;;;;5092897;28;20201;-72
2024/01/22 07:28:29;;;;;;;5.93;4.77;;;2.00;99.90;;;;;;5092552;28;20699;-72
2024/01/22 07:30:56;;;;;;;8.67;4.43;;;2.20;99.90;;;;;;5092622;28;20711;-72
2024/01/22 07:33:24;;;;;;;7.90;4.60;;;2.60;99.90;;;;;;5092663;28;20241;-72
2024/01/22 07:35:50;;;;;;;5.27;4.77;;;2.80;99.90;;;;;;5092469;28;20197;-72
2024/01/22 07:38:17;;;;;;;5.00;3.80;;;2.80;99.90;;;;;;5092814;28;20201;-72
2024/01/22 07:40:43;;;;;;;6.67;4.10;;;3.00;99.90;;;;;;5092275;28;20597;-72
2024/01/22 07:43:10;;;;;;;5.87;3.60;;;3.30;99.90;;;;;;5092561;28;20280;-72
2024/01/22 07:45:37;;;;;;;5.10;3.30;;;3.40;99.90;;;;;;5092754;28;20293;-72
2024/01/22 07:48:04;;;;;;;4.83;4.07;;;3.40;99.90;;;;;;5092512;28;20628;-72
2024/01/22 07:50:32;;;;;;;5.20;3.57;;;3.60;99.90;;;;;;5092488;28;20270;-72
2024/01/22 07:52:59;;;;;;;7.57;3.67;;;3.70;99.90;;;;;;5092230;28;20554;-72
2024/01/22 07:55:25;;;;;;;5.63;3.93;;;3.80;99.90;;;;;;5092578;28;20247;-72
2024/01/22 07:57:52;;;;;;;5.00;3.50;;;3.90;99.90;;;;;;5092556;28;20198;-72
2024/01/22 08:00:19;;;;;;;6.20;4.07;;;3.90;99.90;;;;;;5092485;28;20199;-73
2024/01/22 08:02:46;;;;;;;5.23;3.50;;;3.90;99.90;;;;;;5092446;28;20741;-72
2024/01/22 08:05:13;;;;;;;6.33;3.67;;;3.90;99.90;;;;;;5092353;28;20208;-72
2024/01/22 08:07:43;;;;;;;4.57;4.00;;;4.10;99.90;;;;;;5092529;28;20200;-72
2024/01/22 08:10:10;;;;;;;5.50;3.17;;;4.10;99.90;;;;;;5092280;28;20211;-71
2024/01/22 08:12:36;;;;;;;4.53;3.23;;;4.20;99.90;;;;;;5092535;28;20206;-72
2024/01/22 08:15:04;;;;;;;4.60;3.60;;;4.20;99.90;;;;;;5092226;28;20253;-71
2024/01/22 08:17:31;;;;;;;4.00;3.10;;;4.20;99.90;;;;;;5092201;28;20212;-72
2024/01/22 08:19:58;;;;;;;5.53;3.90;;;4.20;99.90;;;;;;5091974;28;20200;-72
2024/01/22 08:22:24;;;;;;;5.80;4.10;;;4.20;99.90;;;;;;5092020;28;20695;-72
2024/01/22 08:24:52;;;;;;;4.37;3.40;;;4.30;99.90;;;;;;5092382;28;20192;-72
2024/01/22 08:27:19;;;;;;;6.33;3.40;;;4.40;99.90;;;;;;5095212;28;20232;-72
2024/01/22 08:29:47;;;;;;;7.10;3.77;;;4.30;99.90;;;;;;5095897;28;20200;-72
2024/01/22 08:32:13;;;;;;;7.53;3.80;;;4.50;99.90;;;;;;5095719;28;20210;-71
2024/01/22 08:34:41;;;;;;;6.23;3.07;;;4.50;99.90;;;;;;5096037;28;20644;-71
2024/01/22 08:37:08;;;;;;;4.87;3.40;;;4.60;99.90;;;;;;5095702;28;20207;-71
2024/01/22 08:39:34;;;;;;;4.13;3.20;;;4.50;99.90;;;;;;5095841;28;20352;-71
2024/01/22 08:42:02;;;;;;;6.27;3.50;;;4.40;99.90;;;;;;5095505;28;20213;-71
2024/01/22 08:44:29;;;;;;;4.60;3.10;;;4.40;99.90;;;;;;5095897;28;20582;-71
2024/01/22 08:46:55;;;;;;;4.90;3.47;;;4.30;99.90;;;;;;5095739;28;20249;-70
2024/01/22 08:49:22;;;;;;;8.60;3.67;;;4.30;99.90;;;;;;5095757;28;20203;-70
2024/01/22 08:51:49;;;;;;;6.10;3.47;;;4.30;99.90;;;;;;5095424;28;20659;-70
2024/01/22 08:54:15;;;;;;;4.43;3.50;;;4.30;99.90;;;;;;5095401;28;20668;-70
2024/01/22 08:56:42;;;;;;;5.97;3.60;;;4.30;99.90;;;;;;5095379;28;20560;-70
2024/01/22 08:59:10;;;;;;;7.70;3.93;;;4.30;99.90;;;;;;5095333;28;20196;-69
2024/01/22 09:01:36;;;;;;;4.67;3.53;;;4.40;99.90;;;;;;5085787;28;20201;-68
2024/01/22 09:04:06;;;;;;;4.43;3.60;;;4.40;99.90;;;;;;5063868;28;20231;-68
2024/01/22 09:06:32;;;;;;;5.63;3.60;;;4.50;99.90;;;;;;5073663;28;20216;-69
2024/01/22 09:08:59;;;;;;;5.40;3.63;;;4.60;99.90;;;;;;5054775;28;20201;-70
2024/01/22 09:11:26;;;;;;;5.90;4.27;;;4.60;99.90;;;;;;5054873;28;20198;-71
2024/01/22 09:13:52;;;;;;;8.13;4.50;;;4.50;99.90;;;;;;5054561;28;20213;-70
2024/01/22 09:16:21;;;;;;;5.77;4.10;;;4.40;99.90;;;;;;5054556;28;20596;-70
2024/01/22 09:18:48;;;;;;;6.70;4.10;;;4.40;99.90;;;;;;5054846;28;20250;-71
2024/01/22 09:21:14;;;;;;;5.30;3.30;;;4.40;99.90;;;;;;5054472;28;20603;-70
2024/01/22 09:23:41;;;;;;;5.97;4.10;;;4.40;99.90;;;;;;5068445;28;20726;-70
2024/01/22 09:26:08;;;;;;;5.73;4.03;;;4.40;99.90;;;;;;5074273;28;20759;-70
2024/01/22 09:28:34;;;;;;;5.83;3.50;;;4.40;99.90;;;;;;5090013;28;20262;-69
2024/01/22 09:31:01;;;;;;;6.37;3.73;;;4.50;99.90;;;;;;5094925;28;20204;-69
2024/01/22 09:33:29;;;;;;;6.73;3.50;;;4.60;99.90;;;;;;5094403;28;20196;-72
2024/01/22 09:35:56;;;;;;;4.00;3.60;;;4.70;99.90;;;;;;5094679;28;20196;-73
2024/01/22 09:38:22;;;;;;;4.50;3.50;;;4.80;99.90;;;;;;5086977;28;20193;-69
2024/01/22 09:40:50;;;;;;;4.57;3.50;;;4.80;99.90;;;;;;5074235;28;20250;-69
2024/01/22 09:43:18;;;;;;;4.87;3.40;;;4.80;99.90;;;;;;5074173;28;20235;-69
2024/01/22 09:45:47;;;;;;;7.20;3.97;;;4.90;99.90;;;;;;5074292;28;20287;-69
2024/01/22 09:48:13;;;;;;;4.30;3.47;;;4.80;99.90;;;;;;5074400;28;20200;-69
2024/01/22 09:50:42;;;;;;;5.43;3.67;;;4.90;99.90;;;;;;5074201;28;20212;-71
2024/01/22 09:53:10;;;;;;;4.53;3.40;;;4.90;99.90;;;;;;5073688;28;20599;-70
2024/01/22 09:55:39;;;;;;;5.57;3.77;;;4.90;99.90;;;;;;5074246;28;20557;-70
2024/01/22 09:58:08;;;;;;;6.83;4.20;;;4.90;99.90;;;;;;5074317;28;20201;-71
2024/01/22 10:00:35;;;;;;;7.20;4.33;;;5.00;99.90;;;;;;5075004;28;20204;-71
2024/01/22 10:03:03;;;;;;;6.63;3.77;;;5.00;99.90;;;;;;5073903;28;20225;-72
2024/01/22 10:05:30;;;;;;;6.63;4.00;;;5.10;99.90;;;;;;5073970;28;20263;-72
2024/01/22 10:07:58;;;;;;;7.10;4.13;;;5.10;99.90;;;;;;5072954;28;20267;-73
2024/01/22 10:10:25;;;;;;;6.27;4.10;;;5.20;99.90;;;;;;5073198;28;20663;-74
2024/01/22 10:13:03;;;;;;;10.67;4.43;;;5.20;99.90;;;;;;5076673;28;20231;-72
2024/01/22 10:15:31;;;;;;;9.53;3.63;;;5.20;99.90;;;;;;5073661;28;20203;-72
2024/01/22 10:18:08;;;;;;;5.87;3.73;;;5.30;99.90;;;;;;5073603;28;20200;-71
2024/01/22 10:20:35;;;;;;;6.80;4.43;;;5.30;99.90;;;;;;5073371;28;20269;-71
2024/01/22 10:23:03;;;;;;;5.47;3.93;;;5.30;99.90;;;;;;5073584;28;20229;-74
2024/01/22 10:25:30;;;;;;;8.13;4.40;;;5.40;99.90;;;;;;5073758;28;20649;-84
2024/01/22 10:28:16;;;;;;;8.27;4.30;;;5.50;99.90;;;;;;5073500;28;20229;-71
2024/01/22 10:30:44;;;;;;;7.30;4.53;;;5.60;99.90;;;;;;5073884;28;20556;-71
2024/01/22 10:33:13;;;;;;;4.67;4.07;;;5.60;99.90;;;;;;5073456;28;20205;-71
2024/01/22 10:35:40;;;;;;;5.70;4.30;;;5.60;99.90;;;;;;5073479;28;20201;-72
2024/01/22 10:38:09;;;;;;;5.23;3.87;;;5.60;99.90;;;;;;5073050;28;20197;-72
2024/01/22 10:40:36;;;;;;;6.43;4.00;;;5.80;99.90;;;;;;5072743;28;20202;-72
2024/01/22 10:43:19;;;;;;;6.30;4.30;;;5.90;99.90;;;;;;5072797;28;20251;-72
2024/01/22 10:45:47;;;;;;;5.53;3.70;;;6.00;99.90;;;;;;5073271;28;20253;-71
2024/01/22 10:48:15;;;;;;;5.43;3.90;;;6.10;99.90;;;;;;5072696;28;20280;-73
2024/01/22 10:50:43;;;;;;;5.90;3.80;;;6.20;99.90;;;;;;5072906;28;20652;-71
2024/01/22 10:53:11;;;;;;;5.97;3.73;;;6.20;99.90;;;;;;5078597;28;20261;-72
2024/01/22 10:55:39;;;;;;;5.43;3.50;;;6.20;99.90;;;;;;5072921;28;20287;-71
2024/01/22 10:58:14;;;;;;;6.00;3.30;;;6.10;99.90;;;;;;5073004;28;20201;-72
2024/01/22 11:00:43;;;;;;;9.73;3.60;;;6.10;99.90;;;;;;5073018;28;20329;-72
2024/01/22 11:03:16;;;;;;;5.93;3.40;;;6.20;99.90;;;;;;5072892;28;20213;-71
2024/01/22 11:05:45;;;;;;;4.43;3.33;;;6.20;99.90;;;;;;5072820;28;20193;-71
2024/01/22 11:08:16;;;;;;;4.60;3.70;;;6.00;99.90;;;;;;5072658;28;20198;-71
2024/01/22 11:10:45;;;;;;;4.13;3.30;;;5.80;99.90;;;;;;5073196;28;20193;-72
2024/01/22 11:13:13;;;;;;;5.77;4.03;;;5.70;99.90;;;;;;5072822;28;20206;-71
2024/01/22 11:15:40;;;;;;;5.77;4.13;;;5.60;99.90;;;;;;5072696;28;20204;-71
2024/01/22 11:18:08;;;;;;;6.70;4.13;;;5.60;99.90;;;;;;5072651;28;20197;-71
2024/01/22 11:20:37;;;;;;;5.60;3.83;;;5.40;99.90;;;;;;5072558;28;20211;-72
2024/01/22 11:23:08;;;;;;;4.93;4.03;;;5.40;99.90;;;;;;5072480;28;20258;-71
2024/01/22 11:25:36;;;;;;;7.43;4.07;;;5.40;99.90;;;;;;5073137;28;20279;-71
2024/01/22 11:28:06;;;;;;;5.20;4.30;;;5.30;99.90;;;;;;5072329;28;20237;-72
2024/01/22 11:30:35;;;;;;;5.20;4.00;;;5.40;99.90;;;;;;5072628;28;20197;-71
2024/01/22 11:33:02;;;;;;;5.83;3.97;;;5.40;99.90;;;;;;5072561;28;20200;-71
2024/01/22 11:35:36;;;;;;;6.70;4.10;;;5.50;99.90;;;;;;5072419;28;20722;-72
2024/01/22 11:38:04;;;;;;;7.33;4.30;;;5.30;99.90;;;;;;5072552;28;20580;-71
2024/01/22 11:40:49;;;;;;;7.30;4.47;;;5.30;99.90;;;;;;5072544;28;20196;-72
2024/01/22 11:43:17;;;;;;;6.83;4.47;;;5.30;99.90;;;;;;5085275;28;20845;-72
2024/01/22 11:45:44;;;;;;;5.90;4.43;;;5.10;99.90;;;;;;5092257;28;20563;-73
2024/01/22 11:48:18;;;;;;;6.00;4.73;;;4.90;99.90;;;;;;5092056;28;20215;-73
2024/01/22 11:50:57;;;;;;;5.47;4.33;;;5.00;99.90;;;;;;5092729;28;20207;-72
2024/01/22 11:53:24;;;;;;;6.23;4.43;;;5.00;99.90;;;;;;5092652;28;20192;-72
2024/01/22 11:56:02;;;;;;;6.13;4.53;;;5.10;99.90;;;;;;5092475;28;20196;-72
2024/01/22 11:58:29;;;;;;;6.20;4.13;;;5.10;99.90;;;;;;5092306;28;20200;-72
2024/01/22 12:00:56;;;;;;;8.07;4.50;;;5.10;99.90;;;;;;5093629;28;20203;-72
2024/01/22 12:03:26;;;;;;;5.30;4.23;;;5.30;99.90;;;;;;5096203;28;20220;-72
2024/01/22 12:06:00;;;;;;;8.87;4.63;;;5.30;99.90;;;;;;5096533;28;20257;-72
2024/01/22 12:08:26;;;;;;;5.00;4.07;;;5.20;99.90;;;;;;5096376;28;20279;-72
2024/01/22 12:10:56;;;;;;;6.07;4.73;;;5.20;99.90;;;;;;5096207;28;20204;-72
2024/01/22 12:13:24;;;;;;;6.47;4.63;;;5.20;99.90;;;;;;5096397;28;20200;-72
2024/01/22 12:15:56;;;;;;;5.97;4.20;;;5.30;99.90;;;;;;5096473;28;20200;-72
2024/01/22 12:18:23;;;;;;;7.13;4.60;;;5.50;99.90;;;;;;5096112;28;20200;-72
2024/01/22 12:20:50;;;;;;;6.20;4.67;;;5.50;99.90;;;;;;5096161;28;20196;-72
2024/01/22 12:23:29;;;;;;;6.83;4.80;;;5.60;99.90;;;;;;5095893;28;20556;-72
2024/01/22 12:25:56;;;;;;;7.87;4.73;;;5.70;99.90;;;;;;5096215;28;20245;-72
2024/01/22 12:28:25;;;;;;;7.43;4.53;;;5.80;99.90;;;;;;5095815;28;20236;-72
2024/01/22 12:31:00;;;;;;;8.37;5.97;;;5.90;99.90;;;;;;5096107;28;20202;-71
2024/01/22 12:33:28;;;;;;;8.07;4.47;;;5.80;99.90;;;;;;5095719;28;20291;-72
2024/01/22 12:36:08;;;;;;;8.47;4.90;;;5.80;99.90;;;;;;5095665;28;20230;-72
2024/01/22 12:38:38;;;;;;;6.33;4.27;;;5.80;99.90;;;;;;5095851;28;20730;-72
2024/01/22 12:41:08;;;;;;;8.00;5.10;;;5.80;99.90;;;;;;5095760;28;20206;-72
2024/01/22 12:43:38;;;;;;;7.17;4.87;;;5.80;99.90;;;;;;5095683;28;20220;-72
2024/01/22 12:46:09;;;;;;;4.83;3.97;;;5.80;99.90;;;;;;5095570;28;20291;-72
2024/01/22 12:48:36;;;;;;;8.57;4.70;;;5.80;99.90;;;;;;5095665;28;20696;-72
2024/01/22 12:51:03;;;;;;;7.77;4.83;;;5.80;99.90;;;;;;5095512;28;20200;-72
2024/01/22 12:53:30;;;;;;;11.93;5.87;;;5.80;99.90;;;;;;5095641;28;20265;-72